sensor_id;sensor_type;location;lat;lon;timestamp;temperature;humidity
62476;DHT22;50739;45.670;11.936;2023-07-31T00:03:10;24.76;82.57
62476;DHT22;50739;45.670;11.936;2023-07-31T00:08:14;24.71;82.50
62476;DHT22;50739;45.670;11.936;2023-07-31T00:13:16;24.61;82.49
62476;DHT22;50739;45.670;11.936;2023-07-31T00:18:18;24.50;82.42
62476;DHT22;50739;45.670;11.936;2023-07-31T00:23:22;24.64;81.94
62476;DHT22;50739;45.670;11.936;2023-07-31T00:28:24;24.53;82.29
62476;DHT22;50739;45.670;11.936;2023-07-31T00:33:27;24.57;82.36
62476;DHT22;50739;45.670;11.936;2023-07-31T00:38:31;24.57;81.94
62476;DHT22;50739;45.670;11.936;2023-07-31T00:43:33;24.52;82.12
62476;DHT22;50739;45.670;11.936;2023-07-31T00:54:25;24.49;82.11
62476;DHT22;50739;45.670;11.936;2023-07-31T00:59:28;24.48;82.46
62476;DHT22;50739;45.670;11.936;2023-07-31T01:04:30;24.48;82.44
62476;DHT22;50739;45.670;11.936;2023-07-31T01:09:39;24.44;82.33
62476;DHT22;50739;45.670;11.936;2023-07-31T01:14:51;24.46;81.93
62476;DHT22;50739;45.670;11.936;2023-07-31T01:19:54;24.39;82.57
62476;DHT22;50739;45.670;11.936;2023-07-31T01:25:12;24.26;82.76
62476;DHT22;50739;45.670;11.936;2023-07-31T01:30:22;24.19;82.77
62476;DHT22;50739;45.670;11.936;2023-07-31T01:35:27;24.09;83.67
62476;DHT22;50739;45.670;11.936;2023-07-31T01:40:30;24.16;83.19
62476;DHT22;50739;45.670;11.936;2023-07-31T01:45:34;24.18;83.27
62476;DHT22;50739;45.670;11.936;2023-07-31T01:50:36;24.01;83.59
62476;DHT22;50739;45.670;11.936;2023-07-31T01:55:38;23.84;83.76
62476;DHT22;50739;45.670;11.936;2023-07-31T02:00:42;24.00;83.30
62476;DHT22;50739;45.670;11.936;2023-07-31T02:05:44;23.93;83.63
62476;DHT22;50739;45.670;11.936;2023-07-31T02:10:47;24.00;83.29
62476;DHT22;50739;45.670;11.936;2023-07-31T02:15:50;23.77;83.77
62476;DHT22;50739;45.670;11.936;2023-07-31T02:20:53;23.93;83.81
62476;DHT22;50739;45.670;11.936;2023-07-31T02:25:55;23.91;83.35
62476;DHT22;50739;45.670;11.936;2023-07-31T02:30:59;23.66;84.13
62476;DHT22;50739;45.670;11.936;2023-07-31T02:36:01;23.70;83.56
62476;DHT22;50739;45.670;11.936;2023-07-31T02:41:03;23.75;83.66
62476;DHT22;50739;45.670;11.936;2023-07-31T02:46:07;23.40;84.71
62476;DHT22;50739;45.670;11.936;2023-07-31T02:51:09;23.51;84.14
62476;DHT22;50739;45.670;11.936;2023-07-31T02:56:11;23.53;84.01
62476;DHT22;50739;45.670;11.936;2023-07-31T03:01:15;23.36;84.43
62476;DHT22;50739;45.670;11.936;2023-07-31T03:06:17;23.45;84.17
62476;DHT22;50739;45.670;11.936;2023-07-31T03:11:19;23.24;84.51
62476;DHT22;50739;45.670;11.936;2023-07-31T03:16:23;23.45;84.04
62476;DHT22;50739;45.670;11.936;2023-07-31T03:21:25;23.34;84.16
62476;DHT22;50739;45.670;11.936;2023-07-31T03:26:28;23.26;84.23
62476;DHT22;50739;45.670;11.936;2023-07-31T03:31:32;23.30;83.66
62476;DHT22;50739;45.670;11.936;2023-07-31T03:36:34;23.29;83.66
62476;DHT22;50739;45.670;11.936;2023-07-31T03:41:36;23.36;83.39
62476;DHT22;50739;45.670;11.936;2023-07-31T03:46:40;23.36;83.55
62476;DHT22;50739;45.670;11.936;2023-07-31T03:51:42;23.26;83.50
62476;DHT22;50739;45.670;11.936;2023-07-31T03:56:45;23.26;83.85
62476;DHT22;50739;45.670;11.936;2023-07-31T04:01:49;23.03;84.56
62476;DHT22;50739;45.670;11.936;2023-07-31T04:06:51;23.22;84.02
62476;DHT22;50739;45.670;11.936;2023-07-31T04:11:53;23.18;83.97
62476;DHT22;50739;45.670;11.936;2023-07-31T04:16:57;23.20;83.67
62476;DHT22;50739;45.670;11.936;2023-07-31T04:21:59;23.27;82.91
62476;DHT22;50739;45.670;11.936;2023-07-31T04:27:02;23.39;82.19
62476;DHT22;50739;45.670;11.936;2023-07-31T04:32:06;23.30;82.18
62476;DHT22;50739;45.670;11.936;2023-07-31T04:37:08;23.23;82.50
62476;DHT22;50739;45.670;11.936;2023-07-31T04:42:11;23.23;82.20
62476;DHT22;50739;45.670;11.936;2023-07-31T04:47:14;23.20;82.32
62476;DHT22;50739;45.670;11.936;2023-07-31T04:52:17;23.19;82.39
62476;DHT22;50739;45.670;11.936;2023-07-31T04:57:19;23.36;80.85
62476;DHT22;50739;45.670;11.936;2023-07-31T05:02:23;23.39;80.54
62476;DHT22;50739;45.670;11.936;2023-07-31T05:07:25;23.53;80.37
62476;DHT22;50739;45.670;11.936;2023-07-31T05:12:27;23.70;79.31
62476;DHT22;50739;45.670;11.936;2023-07-31T05:17:31;23.84;78.02
62476;DHT22;50739;45.670;11.936;2023-07-31T05:22:33;24.02;78.07
62476;DHT22;50739;45.670;11.936;2023-07-31T05:27:36;24.02;77.71
62476;DHT22;50739;45.670;11.936;2023-07-31T05:32:39;24.19;77.58
62476;DHT22;50739;45.670;11.936;2023-07-31T05:37:42;24.29;76.98
62476;DHT22;50739;45.670;11.936;2023-07-31T05:42:44;24.37;76.69
62476;DHT22;50739;45.670;11.936;2023-07-31T05:47:47;24.46;75.83
62476;DHT22;50739;45.670;11.936;2023-07-31T05:52:50;24.59;75.99
62476;DHT22;50739;45.670;11.936;2023-07-31T05:57:52;24.74;74.99
62476;DHT22;50739;45.670;11.936;2023-07-31T06:02:56;24.84;75.47
62476;DHT22;50739;45.670;11.936;2023-07-31T06:07:58;24.98;74.07
62476;DHT22;50739;45.670;11.936;2023-07-31T06:13:00;25.11;73.24
62476;DHT22;50739;45.670;11.936;2023-07-31T06:18:04;25.21;72.50
62476;DHT22;50739;45.670;11.936;2023-07-31T06:23:08;25.42;72.67
62476;DHT22;50739;45.670;11.936;2023-07-31T06:28:10;25.49;71.44
62476;DHT22;50739;45.670;11.936;2023-07-31T06:33:14;25.76;70.43
62476;DHT22;50739;45.670;11.936;2023-07-31T06:38:21;25.74;70.17
62476;DHT22;50739;45.670;11.936;2023-07-31T06:43:24;25.91;69.80
62476;DHT22;50739;45.670;11.936;2023-07-31T06:48:27;26.17;68.53
62476;DHT22;50739;45.670;11.936;2023-07-31T06:53:30;26.17;68.52
62476;DHT22;50739;45.670;11.936;2023-07-31T06:58:32;26.22;68.90
62476;DHT22;50739;45.670;11.936;2023-07-31T07:03:36;26.42;68.07
62476;DHT22;50739;45.670;11.936;2023-07-31T07:08:38;26.51;66.47
62476;DHT22;50739;45.670;11.936;2023-07-31T07:13:40;26.60;64.91
62476;DHT22;50739;45.670;11.936;2023-07-31T07:18:44;26.69;65.37
62476;DHT22;50739;45.670;11.936;2023-07-31T07:23:46;26.76;63.90
62476;DHT22;50739;45.670;11.936;2023-07-31T07:28:49;26.75;64.96
62476;DHT22;50739;45.670;11.936;2023-07-31T07:33:52;26.92;64.15
62476;DHT22;50739;45.670;11.936;2023-07-31T07:38:55;27.24;64.09
62476;DHT22;50739;45.670;11.936;2023-07-31T07:43:58;27.30;62.89
62476;DHT22;50739;45.670;11.936;2023-07-31T07:49:02;27.47;63.65
62476;DHT22;50739;45.670;11.936;2023-07-31T07:54:04;27.48;62.39
62476;DHT22;50739;45.670;11.936;2023-07-31T07:59:06;27.58;62.48
62476;DHT22;50739;45.670;11.936;2023-07-31T08:04:10;27.54;62.19
62476;DHT22;50739;45.670;11.936;2023-07-31T08:09:12;27.54;62.96
62476;DHT22;50739;45.670;11.936;2023-07-31T08:14:15;27.70;63.00
62476;DHT22;50739;45.670;11.936;2023-07-31T08:19:18;27.82;63.08
62476;DHT22;50739;45.670;11.936;2023-07-31T08:24:21;27.65;62.58
62476;DHT22;50739;45.670;11.936;2023-07-31T08:29:23;27.81;62.51
62476;DHT22;50739;45.670;11.936;2023-07-31T08:34:26;27.79;61.91
62476;DHT22;50739;45.670;11.936;2023-07-31T08:39:29;27.85;62.32
62476;DHT22;50739;45.670;11.936;2023-07-31T08:44:31;27.92;61.30
62476;DHT22;50739;45.670;11.936;2023-07-31T08:49:37;27.88;61.46
62476;DHT22;50739;45.670;11.936;2023-07-31T08:54:41;27.70;59.91
62476;DHT22;50739;45.670;11.936;2023-07-31T08:59:43;27.66;60.82
62476;DHT22;50739;45.670;11.936;2023-07-31T09:04:47;27.61;61.74
62476;DHT22;50739;45.670;11.936;2023-07-31T09:09:50;27.63;62.59
62476;DHT22;50739;45.670;11.936;2023-07-31T09:14:53;27.85;63.26
62476;DHT22;50739;45.670;11.936;2023-07-31T09:19:56;28.06;62.35
62476;DHT22;50739;45.670;11.936;2023-07-31T09:25:08;28.28;61.99
62476;DHT22;50739;45.670;11.936;2023-07-31T09:30:16;28.24;61.07
62476;DHT22;50739;45.670;11.936;2023-07-31T09:35:22;28.31;62.61
62476;DHT22;50739;45.670;11.936;2023-07-31T09:40:29;28.57;61.47
62476;DHT22;50739;45.670;11.936;2023-07-31T09:45:34;28.69;60.63
62476;DHT22;50739;45.670;11.936;2023-07-31T09:50:39;28.83;60.50
62476;DHT22;50739;45.670;11.936;2023-07-31T09:55:41;28.80;58.23
62476;DHT22;50739;45.670;11.936;2023-07-31T10:00:44;28.94;60.19
62476;DHT22;50739;45.670;11.936;2023-07-31T10:05:50;28.99;59.85
62476;DHT22;50739;45.670;11.936;2023-07-31T10:10:54;29.02;58.91
62476;DHT22;50739;45.670;11.936;2023-07-31T10:15:59;29.15;58.77
62476;DHT22;50739;45.670;11.936;2023-07-31T10:21:03;29.03;59.60
62476;DHT22;50739;45.670;11.936;2023-07-31T10:26:07;29.19;57.68
62476;DHT22;50739;45.670;11.936;2023-07-31T10:31:10;29.16;59.00
62476;DHT22;50739;45.670;11.936;2023-07-31T10:36:14;29.38;59.78
62476;DHT22;50739;45.670;11.936;2023-07-31T10:41:17;29.23;58.40
62476;DHT22;50739;45.670;11.936;2023-07-31T10:46:19;29.35;59.18
62476;DHT22;50739;45.670;11.936;2023-07-31T10:51:23;29.42;59.39
62476;DHT22;50739;45.670;11.936;2023-07-31T10:56:25;29.62;58.09
62476;DHT22;50739;45.670;11.936;2023-07-31T11:01:49;29.68;57.38
62476;DHT22;50739;45.670;11.936;2023-07-31T11:06:57;29.71;57.01
62476;DHT22;50739;45.670;11.936;2023-07-31T11:12:00;29.77;56.69
62476;DHT22;50739;45.670;11.936;2023-07-31T11:17:06;29.82;57.51
62476;DHT22;50739;45.670;11.936;2023-07-31T11:22:10;29.95;56.24
62476;DHT22;50739;45.670;11.936;2023-07-31T11:27:12;29.92;55.55
62476;DHT22;50739;45.670;11.936;2023-07-31T11:32:16;29.89;56.71
62476;DHT22;50739;45.670;11.936;2023-07-31T11:37:20;29.89;58.27
62476;DHT22;50739;45.670;11.936;2023-07-31T11:42:22;29.82;55.75
62476;DHT22;50739;45.670;11.936;2023-07-31T11:47:26;30.01;56.92
62476;DHT22;50739;45.670;11.936;2023-07-31T11:52:33;30.18;56.38
62476;DHT22;50739;45.670;11.936;2023-07-31T11:57:37;30.06;55.78
62476;DHT22;50739;45.670;11.936;2023-07-31T12:02:40;30.02;55.64
62476;DHT22;50739;45.670;11.936;2023-07-31T12:07:45;29.91;54.97
62476;DHT22;50739;45.670;11.936;2023-07-31T12:12:55;30.09;56.54
62476;DHT22;50739;45.670;11.936;2023-07-31T12:17:59;30.63;59.09
62476;DHT22;50739;45.670;11.936;2023-07-31T12:23:03;30.50;57.44
62476;DHT22;50739;45.670;11.936;2023-07-31T12:28:06;30.40;57.25
62476;DHT22;50739;45.670;11.936;2023-07-31T12:33:13;30.78;60.06
62476;DHT22;50739;45.670;11.936;2023-07-31T12:38:17;31.07;57.89
62476;DHT22;50739;45.670;11.936;2023-07-31T12:43:19;30.95;56.48
62476;DHT22;50739;45.670;11.936;2023-07-31T12:48:22;31.09;56.45
62476;DHT22;50739;45.670;11.936;2023-07-31T12:53:25;31.18;56.84
62476;DHT22;50739;45.670;11.936;2023-07-31T12:58:28;31.40;55.77
62476;DHT22;50739;45.670;11.936;2023-07-31T13:03:30;31.60;55.48
62476;DHT22;50739;45.670;11.936;2023-07-31T13:08:34;31.84;55.07
62476;DHT22;50739;45.670;11.936;2023-07-31T13:13:36;31.50;55.19
62476;DHT22;50739;45.670;11.936;2023-07-31T13:18:38;31.91;53.79
62476;DHT22;50739;45.670;11.936;2023-07-31T13:23:42;32.05;52.96
62476;DHT22;50739;45.670;11.936;2023-07-31T13:28:45;32.42;50.83
62476;DHT22;50739;45.670;11.936;2023-07-31T13:33:47;32.51;51.49
62476;DHT22;50739;45.670;11.936;2023-07-31T13:38:51;32.58;50.36
62476;DHT22;50739;45.670;11.936;2023-07-31T13:43:53;32.82;49.36
62476;DHT22;50739;45.670;11.936;2023-07-31T13:48:55;33.06;49.62
62476;DHT22;50739;45.670;11.936;2023-07-31T13:53:59;33.23;49.78
62476;DHT22;50739;45.670;11.936;2023-07-31T13:59:03;33.14;49.76
62476;DHT22;50739;45.670;11.936;2023-07-31T14:04:05;33.34;49.11
62476;DHT22;50739;45.670;11.936;2023-07-31T14:09:09;33.06;50.49
62476;DHT22;50739;45.670;11.936;2023-07-31T14:14:11;33.62;51.88
62476;DHT22;50739;45.670;11.936;2023-07-31T14:19:14;33.13;50.32
62476;DHT22;50739;45.670;11.936;2023-07-31T14:24:18;33.75;49.49
62476;DHT22;50739;45.670;11.936;2023-07-31T14:29:20;33.30;49.48
62476;DHT22;50739;45.670;11.936;2023-07-31T14:34:22;33.31;50.55
62476;DHT22;50739;45.670;11.936;2023-07-31T14:39:26;33.86;48.66
62476;DHT22;50739;45.670;11.936;2023-07-31T14:44:28;34.64;48.71
62476;DHT22;50739;45.670;11.936;2023-07-31T14:49:31;34.39;47.97
62476;DHT22;50739;45.670;11.936;2023-07-31T14:54:34;34.62;48.10
62476;DHT22;50739;45.670;11.936;2023-07-31T14:59:37;34.89;47.34
62476;DHT22;50739;45.670;11.936;2023-07-31T15:04:39;35.30;46.28
62476;DHT22;50739;45.670;11.936;2023-07-31T15:09:43;35.23;47.42
62476;DHT22;50739;45.670;11.936;2023-07-31T15:14:45;35.13;48.39
62476;DHT22;50739;45.670;11.936;2023-07-31T15:19:47;35.37;46.64
62476;DHT22;50739;45.670;11.936;2023-07-31T15:24:51;35.07;47.33
62476;DHT22;50739;45.670;11.936;2023-07-31T15:29:53;34.24;48.29
62476;DHT22;50739;45.670;11.936;2023-07-31T15:34:56;33.62;49.65
62476;DHT22;50739;45.670;11.936;2023-07-31T15:39:59;32.59;52.09
62476;DHT22;50739;45.670;11.936;2023-07-31T15:45:02;32.31;52.95
62476;DHT22;50739;45.670;11.936;2023-07-31T15:50:05;31.87;54.27
62476;DHT22;50739;45.670;11.936;2023-07-31T15:55:09;31.62;53.83
62476;DHT22;50739;45.670;11.936;2023-07-31T16:00:12;31.51;54.38
62476;DHT22;50739;45.670;11.936;2023-07-31T16:05:14;31.47;53.73
62476;DHT22;50739;45.670;11.936;2023-07-31T16:10:18;31.57;53.76
62476;DHT22;50739;45.670;11.936;2023-07-31T16:15:20;32.14;54.64
62476;DHT22;50739;45.670;11.936;2023-07-31T16:20:23;32.27;52.62
62476;DHT22;50739;45.670;11.936;2023-07-31T16:25:26;32.22;51.33
62476;DHT22;50739;45.670;11.936;2023-07-31T16:30:29;31.62;53.23
62476;DHT22;50739;45.670;11.936;2023-07-31T16:35:31;31.80;52.90
62476;DHT22;50739;45.670;11.936;2023-07-31T16:40:35;31.33;54.30
62476;DHT22;50739;45.670;11.936;2023-07-31T16:45:38;31.33;55.30
62476;DHT22;50739;45.670;11.936;2023-07-31T16:50:40;31.15;54.47
62476;DHT22;50739;45.670;11.936;2023-07-31T16:55:44;30.92;55.26
62476;DHT22;50739;45.670;11.936;2023-07-31T17:00:46;30.82;55.11
62476;DHT22;50739;45.670;11.936;2023-07-31T17:05:48;30.57;55.16
62476;DHT22;50739;45.670;11.936;2023-07-31T17:10:52;30.33;56.24
62476;DHT22;50739;45.670;11.936;2023-07-31T17:15:54;30.13;57.49
62476;DHT22;50739;45.670;11.936;2023-07-31T17:20:56;30.10;56.81
62476;DHT22;50739;45.670;11.936;2023-07-31T17:26:00;30.04;57.56
62476;DHT22;50739;45.670;11.936;2023-07-31T17:31:03;29.81;58.00
62476;DHT22;50739;45.670;11.936;2023-07-31T17:36:05;29.95;58.02
62476;DHT22;50739;45.670;11.936;2023-07-31T17:41:09;29.93;57.54
62476;DHT22;50739;45.670;11.936;2023-07-31T17:46:11;29.80;58.34
62476;DHT22;50739;45.670;11.936;2023-07-31T17:51:14;29.57;59.76
62476;DHT22;50739;45.670;11.936;2023-07-31T17:56:18;29.57;59.35
62476;DHT22;50739;45.670;11.936;2023-07-31T18:01:20;29.54;60.25
62476;DHT22;50739;45.670;11.936;2023-07-31T18:06:23;29.46;60.38
62476;DHT22;50739;45.670;11.936;2023-07-31T18:11:27;29.37;61.32
62476;DHT22;50739;45.670;11.936;2023-07-31T18:16:31;29.20;61.70
62476;DHT22;50739;45.670;11.936;2023-07-31T18:21:34;29.09;62.63
62476;DHT22;50739;45.670;11.936;2023-07-31T18:26:38;28.92;63.36
62476;DHT22;50739;45.670;11.936;2023-07-31T18:36:51;28.68;63.51
62476;DHT22;50739;45.670;11.936;2023-07-31T18:41:55;28.52;63.86
62476;DHT22;50739;45.670;11.936;2023-07-31T18:46:57;28.40;64.62
62476;DHT22;50739;45.670;11.936;2023-07-31T18:51:59;28.36;66.15
62476;DHT22;50739;45.670;11.936;2023-07-31T18:57:04;28.24;66.12
62476;DHT22;50739;45.670;11.936;2023-07-31T19:02:06;28.09;67.46
62476;DHT22;50739;45.670;11.936;2023-07-31T19:07:08;27.90;67.31
62476;DHT22;50739;45.670;11.936;2023-07-31T19:12:12;27.78;68.56
62476;DHT22;50739;45.670;11.936;2023-07-31T19:17:15;27.58;69.04
62476;DHT22;50739;45.670;11.936;2023-07-31T19:22:17;27.40;69.80
62476;DHT22;50739;45.670;11.936;2023-07-31T19:27:21;27.52;70.07
62476;DHT22;50739;45.670;11.936;2023-07-31T19:32:24;27.41;70.35
62476;DHT22;50739;45.670;11.936;2023-07-31T19:37:26;27.33;70.95
62476;DHT22;50739;45.670;11.936;2023-07-31T19:42:30;27.21;71.37
62476;DHT22;50739;45.670;11.936;2023-07-31T19:47:33;27.23;72.01
62476;DHT22;50739;45.670;11.936;2023-07-31T19:52:35;27.18;71.58
62476;DHT22;50739;45.670;11.936;2023-07-31T19:57:39;27.10;71.97
62476;DHT22;50739;45.670;11.936;2023-07-31T20:02:41;26.93;72.77
62476;DHT22;50739;45.670;11.936;2023-07-31T20:07:43;26.90;72.65
62476;DHT22;50739;45.670;11.936;2023-07-31T20:12:47;27.03;72.90
62476;DHT22;50739;45.670;11.936;2023-07-31T20:17:50;26.92;73.18
62476;DHT22;50739;45.670;11.936;2023-07-31T20:22:52;26.59;73.53
62476;DHT22;50739;45.670;11.936;2023-07-31T20:27:56;26.45;74.25
62476;DHT22;50739;45.670;11.936;2023-07-31T20:32:58;26.46;74.51
62476;DHT22;50739;45.670;11.936;2023-07-31T20:38:01;26.38;74.78
62476;DHT22;50739;45.670;11.936;2023-07-31T20:43:05;26.22;75.32
62476;DHT22;50739;45.670;11.936;2023-07-31T20:48:08;26.46;74.74
62476;DHT22;50739;45.670;11.936;2023-07-31T20:53:12;26.38;75.72
62476;DHT22;50739;45.670;11.936;2023-07-31T20:58:16;26.18;76.13
62476;DHT22;50739;45.670;11.936;2023-07-31T21:03:18;26.44;75.58
62476;DHT22;50739;45.670;11.936;2023-07-31T21:08:20;26.57;74.80
62476;DHT22;50739;45.670;11.936;2023-07-31T21:13:24;26.41;75.24
62476;DHT22;50739;45.670;11.936;2023-07-31T21:18:26;26.07;76.32
62476;DHT22;50739;45.670;11.936;2023-07-31T21:23:29;25.96;76.76
62476;DHT22;50739;45.670;11.936;2023-07-31T21:28:32;25.90;76.98
62476;DHT22;50739;45.670;11.936;2023-07-31T21:33:35;25.80;76.83
62476;DHT22;50739;45.670;11.936;2023-07-31T21:38:37;25.70;77.38
62476;DHT22;50739;45.670;11.936;2023-07-31T21:43:41;25.70;77.05
62476;DHT22;50739;45.670;11.936;2023-07-31T21:48:43;25.89;77.12
62476;DHT22;50739;45.670;11.936;2023-07-31T21:53:46;25.89;77.05
62476;DHT22;50739;45.670;11.936;2023-07-31T21:58:49;25.80;76.99
62476;DHT22;50739;45.670;11.936;2023-07-31T22:03:51;25.79;77.26
62476;DHT22;50739;45.670;11.936;2023-07-31T22:08:56;25.50;78.45
62476;DHT22;50739;45.670;11.936;2023-07-31T22:14:00;25.29;79.38
62476;DHT22;50739;45.670;11.936;2023-07-31T22:19:03;25.28;79.22
62476;DHT22;50739;45.670;11.936;2023-07-31T22:24:05;25.41;79.08
62476;DHT22;50739;45.670;11.936;2023-07-31T22:29:10;25.36;79.10
62476;DHT22;50739;45.670;11.936;2023-07-31T22:34:12;25.42;79.13
62476;DHT22;50739;45.670;11.936;2023-07-31T22:39:14;25.45;79.15
62476;DHT22;50739;45.670;11.936;2023-07-31T22:44:18;25.41;79.12
62476;DHT22;50739;45.670;11.936;2023-07-31T22:49:20;25.49;78.90
62476;DHT22;50739;45.670;11.936;2023-07-31T22:54:23;25.14;80.35
62476;DHT22;50739;45.670;11.936;2023-07-31T22:59:26;25.19;80.23
62476;DHT22;50739;45.670;11.936;2023-07-31T23:04:29;25.38;79.41
62476;DHT22;50739;45.670;11.936;2023-07-31T23:09:31;25.31;79.81
62476;DHT22;50739;45.670;11.936;2023-07-31T23:14:35;25.47;79.45
62476;DHT22;50739;45.670;11.936;2023-07-31T23:19:37;25.50;79.25
62476;DHT22;50739;45.670;11.936;2023-07-31T23:24:39;25.35;79.66
62476;DHT22;50739;45.670;11.936;2023-07-31T23:29:43;25.32;79.20
62476;DHT22;50739;45.670;11.936;2023-07-31T23:34:45;25.26;79.58
62476;DHT22;50739;45.670;11.936;2023-07-31T23:39:47;25.12;80.36
62476;DHT22;50739;45.670;11.936;2023-07-31T23:44:51;25.10;80.07
62476;DHT22;50739;45.670;11.936;2023-07-31T23:49:54;24.90;80.41
62476;DHT22;50739;45.670;11.936;2023-07-31T23:54:56;24.61;81.42
